sensor_id;sensor_type;location;lat;lon;timestamp;temperature;humidity
66102;HTU21D;52883;51.094;5.880;2022-10-04T00:01:53;9.60;118.99
66102;HTU21D;52883;51.094;5.880;2022-10-04T00:04:33;9.60;118.99
66102;HTU21D;52883;51.094;5.880;2022-10-04T00:07:21;9.61;118.99
66102;HTU21D;52883;51.094;5.880;2022-10-04T00:09:55;9.57;118.99
66102;HTU21D;52883;51.094;5.880;2022-10-04T00:14:50;9.61;118.99
66102;HTU21D;52883;51.094;5.880;2022-10-04T00:17:23;9.59;118.99
66102;HTU21D;52883;51.094;5.880;2022-10-04T00:19:51;9.52;118.99
66102;HTU21D;52883;51.094;5.880;2022-10-04T00:22:28;9.46;118.99
66102;HTU21D;52883;51.094;5.880;2022-10-04T00:27:33;9.38;118.99
66102;HTU21D;52883;51.094;5.880;2022-10-04T00:38:24;9.20;118.99
66102;HTU21D;52883;51.094;5.880;2022-10-04T00:41:04;9.15;118.99
66102;HTU21D;52883;51.094;5.880;2022-10-04T00:43:42;9.12;118.99
66102;HTU21D;52883;51.094;5.880;2022-10-04T00:46:20;9.12;118.99
66102;HTU21D;52883;51.094;5.880;2022-10-04T00:48:55;9.20;118.99
66102;HTU21D;52883;51.094;5.880;2022-10-04T00:51:46;9.27;118.99
66102;HTU21D;52883;51.094;5.880;2022-10-04T00:56:42;9.30;118.99
66102;HTU21D;52883;51.094;5.880;2022-10-04T01:01:46;9.39;118.99
66102;HTU21D;52883;51.094;5.880;2022-10-04T01:04:42;9.45;118.99
66102;HTU21D;52883;51.094;5.880;2022-10-04T01:07:14;9.40;118.99
66102;HTU21D;52883;51.094;5.880;2022-10-04T01:09:53;9.33;118.99
66102;HTU21D;52883;51.094;5.880;2022-10-04T01:12:35;9.30;118.99
66102;HTU21D;52883;51.094;5.880;2022-10-04T01:17:38;9.26;118.99
66102;HTU21D;52883;51.094;5.880;2022-10-04T01:20:34;9.19;118.99
66102;HTU21D;52883;51.094;5.880;2022-10-04T01:23:02;9.09;118.99
66102;HTU21D;52883;51.094;5.880;2022-10-04T01:25:48;8.97;118.99
66102;HTU21D;52883;51.094;5.880;2022-10-04T01:28:14;8.86;118.99
66102;HTU21D;52883;51.094;5.880;2022-10-04T01:30:41;8.86;118.99
66102;HTU21D;52883;51.094;5.880;2022-10-04T01:33:07;8.87;118.99
66102;HTU21D;52883;51.094;5.880;2022-10-04T01:35:33;8.89;118.99
66102;HTU21D;52883;51.094;5.880;2022-10-04T01:38:04;8.89;118.99
66102;HTU21D;52883;51.094;5.880;2022-10-04T01:40:34;8.86;118.99
66102;HTU21D;52883;51.094;5.880;2022-10-04T01:43:05;8.81;118.99
66102;HTU21D;52883;51.094;5.880;2022-10-04T01:45:39;8.75;118.99
66102;HTU21D;52883;51.094;5.880;2022-10-04T01:48:14;8.74;118.99
66102;HTU21D;52883;51.094;5.880;2022-10-04T01:50:46;8.74;118.99
66102;HTU21D;52883;51.094;5.880;2022-10-04T01:55:53;8.75;118.99
66102;HTU21D;52883;51.094;5.880;2022-10-04T02:01:34;8.71;118.99
66102;HTU21D;52883;51.094;5.880;2022-10-04T02:04:18;8.68;118.99
66102;HTU21D;52883;51.094;5.880;2022-10-04T02:06:47;8.63;118.99
66102;HTU21D;52883;51.094;5.880;2022-10-04T02:09:26;8.62;118.99
66102;HTU21D;52883;51.094;5.880;2022-10-04T02:11:54;8.61;118.99
66102;HTU21D;52883;51.094;5.880;2022-10-04T02:14:33;8.51;118.99
66102;HTU21D;52883;51.094;5.880;2022-10-04T02:17:03;8.38;118.99
66102;HTU21D;52883;51.094;5.880;2022-10-04T02:19:35;8.29;118.99
66102;HTU21D;52883;51.094;5.880;2022-10-04T02:22:04;8.21;118.99
66102;HTU21D;52883;51.094;5.880;2022-10-04T02:24:35;8.14;118.99
66102;HTU21D;52883;51.094;5.880;2022-10-04T02:27:01;8.13;118.99
66102;HTU21D;52883;51.094;5.880;2022-10-04T02:29:27;8.19;118.99
66102;HTU21D;52883;51.094;5.880;2022-10-04T02:31:53;8.22;118.99
66102;HTU21D;52883;51.094;5.880;2022-10-04T02:34:39;8.14;118.99
66102;HTU21D;52883;51.094;5.880;2022-10-04T02:37:06;8.07;118.99
66102;HTU21D;52883;51.094;5.880;2022-10-04T02:39:46;8.03;118.99
66102;HTU21D;52883;51.094;5.880;2022-10-04T02:42:39;7.99;118.99
66102;HTU21D;52883;51.094;5.880;2022-10-04T02:45:19;8.00;118.99
66102;HTU21D;52883;51.094;5.880;2022-10-04T02:47:55;8.05;118.99
66102;HTU21D;52883;51.094;5.880;2022-10-04T02:50:30;8.12;118.99
66102;HTU21D;52883;51.094;5.880;2022-10-04T02:55:39;8.16;118.99
66102;HTU21D;52883;51.094;5.880;2022-10-04T02:58:09;8.17;118.99
66102;HTU21D;52883;51.094;5.880;2022-10-04T03:00:51;8.14;118.99
66102;HTU21D;52883;51.094;5.880;2022-10-04T03:03:28;8.13;118.99
66102;HTU21D;52883;51.094;5.880;2022-10-04T03:06:08;8.06;118.99
66102;HTU21D;52883;51.094;5.880;2022-10-04T03:11:11;8.07;118.99
66102;HTU21D;52883;51.094;5.880;2022-10-04T03:13:43;8.08;118.99
66102;HTU21D;52883;51.094;5.880;2022-10-04T03:16:09;8.02;118.99
66102;HTU21D;52883;51.094;5.880;2022-10-04T03:18:36;7.99;118.99
66102;HTU21D;52883;51.094;5.880;2022-10-04T03:21:07;7.93;118.99
66102;HTU21D;52883;51.094;5.880;2022-10-04T03:23:34;7.87;118.99
66102;HTU21D;52883;51.094;5.880;2022-10-04T03:26:27;7.84;118.99
66102;HTU21D;52883;51.094;5.880;2022-10-04T03:28:55;7.85;118.99
66102;HTU21D;52883;51.094;5.880;2022-10-04T03:31:22;7.85;118.99
66102;HTU21D;52883;51.094;5.880;2022-10-04T03:33:49;7.86;118.99
66102;HTU21D;52883;51.094;5.880;2022-10-04T03:36:17;7.85;118.99
66102;HTU21D;52883;51.094;5.880;2022-10-04T03:38:48;7.79;118.99
66102;HTU21D;52883;51.094;5.880;2022-10-04T03:41:15;7.69;118.99
66102;HTU21D;52883;51.094;5.880;2022-10-04T03:43:44;7.61;118.99
66102;HTU21D;52883;51.094;5.880;2022-10-04T03:46:13;7.63;118.99
66102;HTU21D;52883;51.094;5.880;2022-10-04T03:48:43;7.69;118.99
66102;HTU21D;52883;51.094;5.880;2022-10-04T03:51:15;7.70;118.99
66102;HTU21D;52883;51.094;5.880;2022-10-04T03:53:45;7.69;118.99
66102;HTU21D;52883;51.094;5.880;2022-10-04T03:56:19;7.71;118.99
66102;HTU21D;52883;51.094;5.880;2022-10-04T03:58:49;7.70;118.99
66102;HTU21D;52883;51.094;5.880;2022-10-04T04:01:35;7.69;118.99
66102;HTU21D;52883;51.094;5.880;2022-10-04T04:04:29;7.67;118.99
66102;HTU21D;52883;51.094;5.880;2022-10-04T04:12:41;7.28;118.99
66102;HTU21D;52883;51.094;5.880;2022-10-04T04:15:13;7.16;118.99
66102;HTU21D;52883;51.094;5.880;2022-10-04T04:17:43;7.16;118.99
66102;HTU21D;52883;51.094;5.880;2022-10-04T04:20:24;7.11;118.99
66102;HTU21D;52883;51.094;5.880;2022-10-04T04:25:42;6.96;118.99
66102;HTU21D;52883;51.094;5.880;2022-10-04T04:30:53;7.15;118.99
66102;HTU21D;52883;51.094;5.880;2022-10-04T04:33:50;7.16;118.99
66102;HTU21D;52883;51.094;5.880;2022-10-04T04:36:22;7.10;118.99
66102;HTU21D;52883;51.094;5.880;2022-10-04T04:38:47;7.05;118.99
66102;HTU21D;52883;51.094;5.880;2022-10-04T04:41:33;7.05;118.99
66102;HTU21D;52883;51.094;5.880;2022-10-04T04:44:02;7.01;118.99
66102;HTU21D;52883;51.094;5.880;2022-10-04T04:46:30;6.97;118.99
66102;HTU21D;52883;51.094;5.880;2022-10-04T04:49:03;7.00;118.99
66102;HTU21D;52883;51.094;5.880;2022-10-04T04:51:31;7.03;118.99
66102;HTU21D;52883;51.094;5.880;2022-10-04T04:54:01;6.96;118.99
66102;HTU21D;52883;51.094;5.880;2022-10-04T04:56:29;6.89;118.99
66102;HTU21D;52883;51.094;5.880;2022-10-04T04:59:00;7.00;118.99
66102;HTU21D;52883;51.094;5.880;2022-10-04T05:01:42;7.02;118.99
66102;HTU21D;52883;51.094;5.880;2022-10-04T05:06:36;7.03;118.99
66102;HTU21D;52883;51.094;5.880;2022-10-04T05:09:03;7.03;118.99
66102;HTU21D;52883;51.094;5.880;2022-10-04T05:11:37;6.96;118.99
66102;HTU21D;52883;51.094;5.880;2022-10-04T05:14:10;6.81;118.99
66102;HTU21D;52883;51.094;5.880;2022-10-04T05:16:52;6.67;118.99
66102;HTU21D;52883;51.094;5.880;2022-10-04T05:19:38;6.61;118.99
66102;HTU21D;52883;51.094;5.880;2022-10-04T05:22:11;6.57;118.99
66102;HTU21D;52883;51.094;5.880;2022-10-04T05:24:42;6.50;118.99
66102;HTU21D;52883;51.094;5.880;2022-10-04T05:27:16;6.45;118.99
66102;HTU21D;52883;51.094;5.880;2022-10-04T05:34:57;6.38;118.99
66102;HTU21D;52883;51.094;5.880;2022-10-04T05:37:44;6.51;118.99
66102;HTU21D;52883;51.094;5.880;2022-10-04T05:40:28;6.67;118.99
66102;HTU21D;52883;51.094;5.880;2022-10-04T05:42:56;6.57;118.99
66102;HTU21D;52883;51.094;5.880;2022-10-04T05:45:29;6.43;118.99
66102;HTU21D;52883;51.094;5.880;2022-10-04T05:47:59;6.56;118.99
66102;HTU21D;52883;51.094;5.880;2022-10-04T05:50:30;6.75;118.99
66102;HTU21D;52883;51.094;5.880;2022-10-04T06:07:22;7.41;118.99
66102;HTU21D;52883;51.094;5.880;2022-10-04T06:10:01;7.45;118.99
66102;HTU21D;52883;51.094;5.880;2022-10-04T06:21:40;7.40;118.99
66102;HTU21D;52883;51.094;5.880;2022-10-04T06:24:22;7.32;118.99
66102;HTU21D;52883;51.094;5.880;2022-10-04T06:27:03;7.26;118.99
66102;HTU21D;52883;51.094;5.880;2022-10-04T06:29:37;7.20;118.99
66102;HTU21D;52883;51.094;5.880;2022-10-04T06:38:35;7.26;118.99
66102;HTU21D;52883;51.094;5.880;2022-10-04T06:43:44;7.46;118.99
66102;HTU21D;52883;51.094;5.880;2022-10-04T06:49:29;7.53;118.99
66102;HTU21D;52883;51.094;5.880;2022-10-04T06:55:19;7.98;118.99
66102;HTU21D;52883;51.094;5.880;2022-10-04T07:03:40;8.77;118.99
66102;HTU21D;52883;51.094;5.880;2022-10-04T07:06:12;8.98;118.99
66102;HTU21D;52883;51.094;5.880;2022-10-04T07:08:46;9.22;118.99
66102;HTU21D;52883;51.094;5.880;2022-10-04T07:11:22;9.48;118.99
66102;HTU21D;52883;51.094;5.880;2022-10-04T07:16:47;10.01;118.99
66102;HTU21D;52883;51.094;5.880;2022-10-04T07:27:21;10.33;118.99
66102;HTU21D;52883;51.094;5.880;2022-10-04T07:29:54;10.33;118.99
66102;HTU21D;52883;51.094;5.880;2022-10-04T07:32:45;10.27;118.99
66102;HTU21D;52883;51.094;5.880;2022-10-04T07:40:37;10.22;118.99
66102;HTU21D;52883;51.094;5.880;2022-10-04T07:43:30;10.27;118.99
66102;HTU21D;52883;51.094;5.880;2022-10-04T07:46:21;10.39;118.99
66102;HTU21D;52883;51.094;5.880;2022-10-04T07:48:48;10.45;118.99
66102;HTU21D;52883;51.094;5.880;2022-10-04T07:51:43;10.53;118.99
66102;HTU21D;52883;51.094;5.880;2022-10-04T07:56:56;10.71;118.99
66102;HTU21D;52883;51.094;5.880;2022-10-04T08:07:45;10.92;118.99
66102;HTU21D;52883;51.094;5.880;2022-10-04T08:10:45;11.00;118.99
66102;HTU21D;52883;51.094;5.880;2022-10-04T08:16:37;11.19;118.99
66102;HTU21D;52883;51.094;5.880;2022-10-04T08:19:34;11.29;118.99
66102;HTU21D;52883;51.094;5.880;2022-10-04T08:37:02;12.22;118.99
66102;HTU21D;52883;51.094;5.880;2022-10-04T08:51:05;12.81;118.99
66102;HTU21D;52883;51.094;5.880;2022-10-04T09:11:15;13.81;118.99
66102;HTU21D;52883;51.094;5.880;2022-10-04T09:19:22;14.77;118.99
66102;HTU21D;52883;51.094;5.880;2022-10-04T09:22:17;15.39;118.99
66102;HTU21D;52883;51.094;5.880;2022-10-04T09:30:31;16.94;118.99
66102;HTU21D;52883;51.094;5.880;2022-10-04T09:33:30;17.37;118.99
66102;HTU21D;52883;51.094;5.880;2022-10-04T09:36:15;17.80;118.99
66102;HTU21D;52883;51.094;5.880;2022-10-04T09:39:18;18.20;118.99
66102;HTU21D;52883;51.094;5.880;2022-10-04T09:45:12;18.92;118.99
66102;HTU21D;52883;51.094;5.880;2022-10-04T10:02:24;20.49;118.99
66102;HTU21D;52883;51.094;5.880;2022-10-04T10:08:08;20.96;118.99
66102;HTU21D;52883;51.094;5.880;2022-10-04T10:11:02;21.08;118.99
66102;HTU21D;52883;51.094;5.880;2022-10-04T10:14:00;21.20;118.99
66102;HTU21D;52883;51.094;5.880;2022-10-04T10:19:15;21.29;118.99
66102;HTU21D;52883;51.094;5.880;2022-10-04T10:25:10;21.43;118.99
66102;HTU21D;52883;51.094;5.880;2022-10-04T10:33:34;21.82;118.99
66102;HTU21D;52883;51.094;5.880;2022-10-04T10:38:56;21.90;118.99
66102;HTU21D;52883;51.094;5.880;2022-10-04T10:50:24;22.54;118.99
66102;HTU21D;52883;51.094;5.880;2022-10-04T11:16:18;22.77;118.99
66102;HTU21D;52883;51.094;5.880;2022-10-04T11:22:27;23.09;118.99
66102;HTU21D;52883;51.094;5.880;2022-10-04T11:30:17;23.30;118.99
66102;HTU21D;52883;51.094;5.880;2022-10-04T11:41:58;23.85;118.99
66102;HTU21D;52883;51.094;5.880;2022-10-04T11:44:42;23.86;118.99
66102;HTU21D;52883;51.094;5.880;2022-10-04T11:47:38;23.90;118.99
66102;HTU21D;52883;51.094;5.880;2022-10-04T11:50:36;23.94;118.99
66102;HTU21D;52883;51.094;5.880;2022-10-04T12:01:38;23.39;118.99
66102;HTU21D;52883;51.094;5.880;2022-10-04T12:04:30;23.20;118.99
66102;HTU21D;52883;51.094;5.880;2022-10-04T12:10:24;23.13;118.99
66102;HTU21D;52883;51.094;5.880;2022-10-04T12:24:06;23.42;117.25
66102;HTU21D;52883;51.094;5.880;2022-10-04T12:32:36;23.43;110.21
66102;HTU21D;52883;51.094;5.880;2022-10-04T12:35:22;23.50;115.40
66102;HTU21D;52883;51.094;5.880;2022-10-04T12:52:25;23.02;118.99
66102;HTU21D;52883;51.094;5.880;2022-10-04T13:00:20;23.55;118.99
66102;HTU21D;52883;51.094;5.880;2022-10-04T13:11:15;24.18;118.89
66102;HTU21D;52883;51.094;5.880;2022-10-04T13:16:26;23.95;107.11
66102;HTU21D;52883;51.094;5.880;2022-10-04T13:19:33;23.74;117.95
66102;HTU21D;52883;51.094;5.880;2022-10-04T13:22:34;23.70;118.99
66102;HTU21D;52883;51.094;5.880;2022-10-04T13:27:58;23.66;118.99
66102;HTU21D;52883;51.094;5.880;2022-10-04T13:30:36;23.59;118.99
66102;HTU21D;52883;51.094;5.880;2022-10-04T13:41:45;23.50;118.99
66102;HTU21D;52883;51.094;5.880;2022-10-04T13:44:32;23.61;118.12
66102;HTU21D;52883;51.094;5.880;2022-10-04T13:52:52;23.83;116.99
66102;HTU21D;52883;51.094;5.880;2022-10-04T13:55:58;23.77;116.59
66102;HTU21D;52883;51.094;5.880;2022-10-04T13:58:47;23.76;112.25
66102;HTU21D;52883;51.094;5.880;2022-10-04T14:35:14;21.17;118.99
66102;HTU21D;52883;51.094;5.880;2022-10-04T14:40:48;20.57;118.99
66102;HTU21D;52883;51.094;5.880;2022-10-04T15:00:57;19.74;118.99
66102;HTU21D;52883;51.094;5.880;2022-10-04T15:03:31;19.71;118.99
66102;HTU21D;52883;51.094;5.880;2022-10-04T15:09:09;19.66;118.99
66102;HTU21D;52883;51.094;5.880;2022-10-04T15:14:22;19.59;118.99
66102;HTU21D;52883;51.094;5.880;2022-10-04T15:16:55;19.54;118.99
66102;HTU21D;52883;51.094;5.880;2022-10-04T15:19:31;19.44;118.99
66102;HTU21D;52883;51.094;5.880;2022-10-04T15:22:19;19.31;118.99
66102;HTU21D;52883;51.094;5.880;2022-10-04T15:24:48;19.20;118.99
66102;HTU21D;52883;51.094;5.880;2022-10-04T15:41:24;18.39;118.99
66102;HTU21D;52883;51.094;5.880;2022-10-04T15:52:17;17.90;118.99
66102;HTU21D;52883;51.094;5.880;2022-10-04T16:01:11;17.39;118.99
66102;HTU21D;52883;51.094;5.880;2022-10-04T16:12:30;16.76;118.99
66102;HTU21D;52883;51.094;5.880;2022-10-04T16:15:31;16.63;118.99
66102;HTU21D;52883;51.094;5.880;2022-10-04T16:23:32;16.28;118.99
66102;HTU21D;52883;51.094;5.880;2022-10-04T16:37:13;15.87;118.99
66102;HTU21D;52883;51.094;5.880;2022-10-04T16:48:29;15.65;118.99
66102;HTU21D;52883;51.094;5.880;2022-10-04T16:53:51;15.51;118.99
66102;HTU21D;52883;51.094;5.880;2022-10-04T16:57:05;15.42;118.99
66102;HTU21D;52883;51.094;5.880;2022-10-04T17:16:11;14.43;118.99
66102;HTU21D;52883;51.094;5.880;2022-10-04T17:18:50;14.35;118.99
66102;HTU21D;52883;51.094;5.880;2022-10-04T17:21:36;14.26;118.99
66102;HTU21D;52883;51.094;5.880;2022-10-04T17:36:17;13.29;118.99
66102;HTU21D;52883;51.094;5.880;2022-10-04T17:41:48;13.05;118.99
66102;HTU21D;52883;51.094;5.880;2022-10-04T17:47:32;12.87;118.99
66102;HTU21D;52883;51.094;5.880;2022-10-04T17:50:37;12.88;118.99
66102;HTU21D;52883;51.094;5.880;2022-10-04T17:53:27;12.91;118.99
66102;HTU21D;52883;51.094;5.880;2022-10-04T17:56:24;12.93;118.99
66102;HTU21D;52883;51.094;5.880;2022-10-04T17:58:55;12.91;118.99
66102;HTU21D;52883;51.094;5.880;2022-10-04T18:01:35;12.84;118.99
66102;HTU21D;52883;51.094;5.880;2022-10-04T18:04:15;12.72;118.99
66102;HTU21D;52883;51.094;5.880;2022-10-04T18:12:25;12.46;118.99
66102;HTU21D;52883;51.094;5.880;2022-10-04T18:17:43;12.26;118.99
66102;HTU21D;52883;51.094;5.880;2022-10-04T18:22:46;12.21;118.99
66102;HTU21D;52883;51.094;5.880;2022-10-04T18:25:16;12.15;118.99
66102;HTU21D;52883;51.094;5.880;2022-10-04T18:30:19;12.05;118.99
66102;HTU21D;52883;51.094;5.880;2022-10-04T18:32:54;12.02;118.99
66102;HTU21D;52883;51.094;5.880;2022-10-04T18:37:55;12.04;118.99
66102;HTU21D;52883;51.094;5.880;2022-10-04T18:40:27;12.07;118.99
66102;HTU21D;52883;51.094;5.880;2022-10-04T18:42:58;12.08;118.99
66102;HTU21D;52883;51.094;5.880;2022-10-04T18:45:33;12.06;118.99
66102;HTU21D;52883;51.094;5.880;2022-10-04T18:48:01;12.07;118.99
66102;HTU21D;52883;51.094;5.880;2022-10-04T18:50:37;12.06;118.99
66102;HTU21D;52883;51.094;5.880;2022-10-04T18:53:37;12.05;118.99
66102;HTU21D;52883;51.094;5.880;2022-10-04T18:56:10;12.01;118.99
66102;HTU21D;52883;51.094;5.880;2022-10-04T18:59:05;11.92;118.99
66102;HTU21D;52883;51.094;5.880;2022-10-04T19:04:38;11.77;118.99
66102;HTU21D;52883;51.094;5.880;2022-10-04T19:12:35;11.58;118.99
66102;HTU21D;52883;51.094;5.880;2022-10-04T19:23:32;11.41;118.99
66102;HTU21D;52883;51.094;5.880;2022-10-04T19:31:53;11.25;118.99
66102;HTU21D;52883;51.094;5.880;2022-10-04T19:37:36;11.10;118.99
66102;HTU21D;52883;51.094;5.880;2022-10-04T19:40:25;11.04;118.99
66102;HTU21D;52883;51.094;5.880;2022-10-04T19:43:07;11.03;118.99
66102;HTU21D;52883;51.094;5.880;2022-10-04T19:48:31;11.05;118.99
66102;HTU21D;52883;51.094;5.880;2022-10-04T19:51:12;11.04;118.99
66102;HTU21D;52883;51.094;5.880;2022-10-04T19:53:42;11.07;118.99
66102;HTU21D;52883;51.094;5.880;2022-10-04T19:56:19;11.09;118.99
66102;HTU21D;52883;51.094;5.880;2022-10-04T19:58:50;11.08;118.99
66102;HTU21D;52883;51.094;5.880;2022-10-04T20:01:19;11.04;118.99
66102;HTU21D;52883;51.094;5.880;2022-10-04T20:03:47;11.01;118.99
66102;HTU21D;52883;51.094;5.880;2022-10-04T20:06:33;10.95;118.99
66102;HTU21D;52883;51.094;5.880;2022-10-04T20:17:59;10.69;118.99
66102;HTU21D;52883;51.094;5.880;2022-10-04T20:23:08;10.72;118.99
66102;HTU21D;52883;51.094;5.880;2022-10-04T20:31:02;10.66;118.99
66102;HTU21D;52883;51.094;5.880;2022-10-04T20:38:59;10.75;118.99
66102;HTU21D;52883;51.094;5.880;2022-10-04T20:43:59;10.70;118.99
66102;HTU21D;52883;51.094;5.880;2022-10-04T20:46:34;10.57;118.99
66102;HTU21D;52883;51.094;5.880;2022-10-04T20:49:03;10.48;118.99
66102;HTU21D;52883;51.094;5.880;2022-10-04T20:51:30;10.45;118.99
66102;HTU21D;52883;51.094;5.880;2022-10-04T20:53:59;10.44;118.99
66102;HTU21D;52883;51.094;5.880;2022-10-04T20:56:28;10.42;118.99
66102;HTU21D;52883;51.094;5.880;2022-10-04T20:59:00;10.33;118.99
66102;HTU21D;52883;51.094;5.880;2022-10-04T21:01:31;10.25;118.99
66102;HTU21D;52883;51.094;5.880;2022-10-04T21:06:56;10.25;118.99
66102;HTU21D;52883;51.094;5.880;2022-10-04T21:09:22;10.19;118.99
66102;HTU21D;52883;51.094;5.880;2022-10-04T21:11:51;10.20;118.99
66102;HTU21D;52883;51.094;5.880;2022-10-04T21:14:24;10.20;118.99
66102;HTU21D;52883;51.094;5.880;2022-10-04T21:16:52;10.15;118.99
66102;HTU21D;52883;51.094;5.880;2022-10-04T21:24:51;10.23;118.99
66102;HTU21D;52883;51.094;5.880;2022-10-04T21:27:38;10.18;118.99
66102;HTU21D;52883;51.094;5.880;2022-10-04T21:30:14;10.13;118.99
66102;HTU21D;52883;51.094;5.880;2022-10-04T21:32:40;10.10;118.99
66102;HTU21D;52883;51.094;5.880;2022-10-04T21:35:07;10.08;118.99
66102;HTU21D;52883;51.094;5.880;2022-10-04T21:37:34;10.08;118.99
66102;HTU21D;52883;51.094;5.880;2022-10-04T21:40:00;10.06;118.99
66102;HTU21D;52883;51.094;5.880;2022-10-04T21:42:26;9.98;118.99
66102;HTU21D;52883;51.094;5.880;2022-10-04T21:44:52;9.92;118.99
66102;HTU21D;52883;51.094;5.880;2022-10-04T21:47:18;9.84;118.99
66102;HTU21D;52883;51.094;5.880;2022-10-04T21:49:47;9.81;118.99
66102;HTU21D;52883;51.094;5.880;2022-10-04T21:52:13;9.79;118.99
66102;HTU21D;52883;51.094;5.880;2022-10-04T21:54:38;9.78;118.99
66102;HTU21D;52883;51.094;5.880;2022-10-04T21:57:04;9.76;118.99
66102;HTU21D;52883;51.094;5.880;2022-10-04T21:59:30;9.80;118.99
66102;HTU21D;52883;51.094;5.880;2022-10-04T22:01:55;9.85;118.99
66102;HTU21D;52883;51.094;5.880;2022-10-04T22:04:21;9.85;118.99
66102;HTU21D;52883;51.094;5.880;2022-10-04T22:06:46;9.84;118.99
66102;HTU21D;52883;51.094;5.880;2022-10-04T22:09:12;9.84;118.99
66102;HTU21D;52883;51.094;5.880;2022-10-04T22:11:38;9.86;118.99
66102;HTU21D;52883;51.094;5.880;2022-10-04T22:14:04;9.84;118.99
66102;HTU21D;52883;51.094;5.880;2022-10-04T22:16:29;9.80;118.99
66102;HTU21D;52883;51.094;5.880;2022-10-04T22:18:55;9.77;118.99
66102;HTU21D;52883;51.094;5.880;2022-10-04T22:21:21;9.76;118.99
66102;HTU21D;52883;51.094;5.880;2022-10-04T22:23:46;9.77;118.99
66102;HTU21D;52883;51.094;5.880;2022-10-04T22:26:23;9.74;118.99
66102;HTU21D;52883;51.094;5.880;2022-10-04T22:28:52;9.65;118.99
66102;HTU21D;52883;51.094;5.880;2022-10-04T22:31:24;9.60;118.99
66102;HTU21D;52883;51.094;5.880;2022-10-04T22:33:50;9.63;118.99
66102;HTU21D;52883;51.094;5.880;2022-10-04T22:36:34;9.64;118.99
66102;HTU21D;52883;51.094;5.880;2022-10-04T22:44:17;9.45;118.99
66102;HTU21D;52883;51.094;5.880;2022-10-04T22:46:47;9.44;118.99
66102;HTU21D;52883;51.094;5.880;2022-10-04T22:49:15;9.38;118.99
66102;HTU21D;52883;51.094;5.880;2022-10-04T22:51:43;9.30;118.99
66102;HTU21D;52883;51.094;5.880;2022-10-04T22:54:15;9.24;118.99
66102;HTU21D;52883;51.094;5.880;2022-10-04T22:56:41;9.21;118.99
66102;HTU21D;52883;51.094;5.880;2022-10-04T22:59:11;9.18;118.99
66102;HTU21D;52883;51.094;5.880;2022-10-04T23:01:38;9.17;118.99
66102;HTU21D;52883;51.094;5.880;2022-10-04T23:04:11;9.15;118.99
66102;HTU21D;52883;51.094;5.880;2022-10-04T23:06:38;9.14;118.99
66102;HTU21D;52883;51.094;5.880;2022-10-04T23:09:04;9.15;118.99
66102;HTU21D;52883;51.094;5.880;2022-10-04T23:11:30;9.14;118.99
66102;HTU21D;52883;51.094;5.880;2022-10-04T23:13:57;9.14;118.99
66102;HTU21D;52883;51.094;5.880;2022-10-04T23:16:22;9.11;118.99
66102;HTU21D;52883;51.094;5.880;2022-10-04T23:18:49;9.17;118.99
66102;HTU21D;52883;51.094;5.880;2022-10-04T23:21:24;9.34;118.99
66102;HTU21D;52883;51.094;5.880;2022-10-04T23:23:51;9.47;118.99
66102;HTU21D;52883;51.094;5.880;2022-10-04T23:26:30;9.61;118.99
66102;HTU21D;52883;51.094;5.880;2022-10-04T23:28:57;9.71;118.99
66102;HTU21D;52883;51.094;5.880;2022-10-04T23:31:25;9.77;118.99
66102;HTU21D;52883;51.094;5.880;2022-10-04T23:33:54;9.81;118.99
66102;HTU21D;52883;51.094;5.880;2022-10-04T23:36:22;9.88;118.99
66102;HTU21D;52883;51.094;5.880;2022-10-04T23:38:53;9.98;118.99
66102;HTU21D;52883;51.094;5.880;2022-10-04T23:41:20;10.14;118.99
66102;HTU21D;52883;51.094;5.880;2022-10-04T23:43:47;10.28;118.99
66102;HTU21D;52883;51.094;5.880;2022-10-04T23:46:18;10.38;118.99
66102;HTU21D;52883;51.094;5.880;2022-10-04T23:48:45;10.38;118.99
66102;HTU21D;52883;51.094;5.880;2022-10-04T23:51:15;10.35;118.99
66102;HTU21D;52883;51.094;5.880;2022-10-04T23:53:42;10.31;118.99
66102;HTU21D;52883;51.094;5.880;2022-10-04T23:56:19;10.31;118.99
66102;HTU21D;52883;51.094;5.880;2022-10-04T23:58:45;10.29;118.99
